Time;durP1;ratioP1;P1;durP2;ratioP2;P2;SDS_P1;SDS_P2;PMS_P1;PMS_P2;Temp;Humidity;BMP_temperature;BMP_pressure;BME280_temperature;BME280_humidity;BME280_pressure;Samples;Min_cycle;Max_cycle;Signal;HPM_P1;HPM_P2
2023/05/25 00:01:12;;;;;;;9.50;4.20;;;14.30;89.80;;;;;;6183092;23;20458;-73
2023/05/25 00:03:39;;;;;;;11.07;5.10;;;14.30;89.90;;;;;;6179568;23;20136;-63
2023/05/25 00:06:06;;;;;;;5.80;3.80;;;14.30;89.90;;;;;;6156503;23;20048;-63
2023/05/25 00:08:31;;;;;;;6.22;3.88;;;14.30;89.90;;;;;;6180215;23;20351;-63
2023/05/25 00:10:57;;;;;;;7.22;3.90;;;14.30;89.90;;;;;;6177894;23;20009;-63
2023/05/25 00:13:23;;;;;;;8.15;3.92;;;14.30;90.00;;;;;;6179308;23;20009;-63
2023/05/25 00:15:48;;;;;;;9.07;3.97;;;14.30;90.00;;;;;;6182887;23;20039;-63
2023/05/25 00:18:14;;;;;;;8.48;4.10;;;14.30;90.10;;;;;;6181322;23;20020;-65
2023/05/25 00:20:40;;;;;;;7.35;4.28;;;14.30;90.10;;;;;;6182810;23;20012;-63
2023/05/25 00:23:05;;;;;;;7.28;3.72;;;14.30;90.10;;;;;;6180791;23;20326;-63
2023/05/25 00:25:31;;;;;;;8.02;3.80;;;14.30;90.10;;;;;;6182828;23;20005;-62
2023/05/25 00:27:56;;;;;;;9.32;4.03;;;14.30;90.10;;;;;;6180237;23;20439;-62
2023/05/25 00:30:22;;;;;;;7.45;4.20;;;14.30;90.10;;;;;;6183061;23;20015;-62
2023/05/25 00:32:48;;;;;;;7.53;3.30;;;14.30;90.10;;;;;;6180741;23;20339;-61
2023/05/25 00:35:13;;;;;;;7.57;4.00;;;14.30;90.10;;;;;;6155947;23;20009;-62
2023/05/25 00:37:39;;;;;;;10.70;4.10;;;14.40;90.10;;;;;;6180009;23;20044;-61
2023/05/25 00:40:09;;;;;;;9.25;4.85;;;14.40;90.10;;;;;;6181975;23;20005;-61
2023/05/25 00:42:37;;;;;;;6.15;3.40;;;14.40;90.20;;;;;;6181021;23;20060;-61
2023/05/25 00:45:03;;;;;;;7.57;3.58;;;14.50;90.20;;;;;;6180941;23;20025;-61
2023/05/25 00:47:30;;;;;;;7.72;4.13;;;14.50;90.20;;;;;;6180424;23;20024;-61
2023/05/25 00:49:56;;;;;;;9.25;4.63;;;14.50;90.10;;;;;;6182443;23;20059;-62
2023/05/25 00:52:22;;;;;;;5.70;3.58;;;14.60;90.10;;;;;;6180815;23;20092;-61
2023/05/25 00:54:52;;;;;;;7.53;3.97;;;14.60;90.10;;;;;;6182727;23;20119;-61
2023/05/25 00:57:22;;;;;;;9.15;4.03;;;14.60;90.10;;;;;;6179569;23;20016;-61
2023/05/25 00:59:50;;;;;;;6.85;4.03;;;14.60;90.10;;;;;;6154799;23;20009;-61
2023/05/25 01:02:18;;;;;;;7.25;3.88;;;14.60;90.00;;;;;;6180172;23;20512;-73
2023/05/25 01:04:51;;;;;;;6.22;4.00;;;14.60;90.20;;;;;;6181240;23;20048;-73
2023/05/25 01:07:20;;;;;;;8.10;3.90;;;14.60;90.00;;;;;;6180318;23;20045;-71
2023/05/25 01:09:49;;;;;;;9.07;4.55;;;14.60;89.80;;;;;;6182542;23;20012;-73
2023/05/25 01:12:16;;;;;;;10.13;4.70;;;14.60;89.90;;;;;;6180901;23;20012;-72
2023/05/25 01:14:42;;;;;;;8.07;3.88;;;14.60;89.80;;;;;;6181725;23;20005;-72
2023/05/25 01:17:09;;;;;;;9.10;3.70;;;14.60;89.90;;;;;;6180229;23;20020;-73
2023/05/25 01:19:37;;;;;;;10.63;4.68;;;14.50;89.80;;;;;;6181585;23;20430;-73
2023/05/25 01:22:31;;;;;;;11.65;4.13;;;14.60;89.90;;;;;;6180860;23;20439;-73
2023/05/25 01:25:12;;;;;;;5.07;3.28;;;14.50;89.90;;;;;;6155144;23;20016;-72
2023/05/25 01:27:56;;;;;;;7.47;3.50;;;14.50;89.90;;;;;;6181137;23;20390;-72
2023/05/25 01:30:25;;;;;;;5.50;3.50;;;14.50;90.00;;;;;;6154344;23;20008;-73
2023/05/25 01:32:52;;;;;;;5.97;3.60;;;14.40;90.00;;;;;;6153550;23;20080;-73
2023/05/25 01:35:20;;;;;;;7.72;4.00;;;14.40;90.10;;;;;;6180364;23;20012;-73
2023/05/25 01:37:46;;;;;;;7.00;3.25;;;14.40;90.20;;;;;;6154394;23;20332;-73
2023/05/25 01:40:14;;;;;;;13.52;5.10;;;14.40;90.20;;;;;;6181107;23;20391;-72
2023/05/25 01:42:39;;;;;;;6.28;4.03;;;14.30;90.20;;;;;;6154101;23;20005;-73
2023/05/25 01:45:07;;;;;;;9.68;3.85;;;14.30;90.30;;;;;;6180761;23;20021;-73
2023/05/25 01:47:50;;;;;;;7.43;3.88;;;14.30;90.20;;;;;;6181084;23;20020;-72
2023/05/25 01:50:23;;;;;;;6.53;4.07;;;14.30;90.30;;;;;;6180728;23;20343;-73
2023/05/25 01:53:21;;;;;;;6.18;3.88;;;14.20;90.30;;;;;;6180095;23;20001;-73
2023/05/25 01:55:58;;;;;;;5.88;3.35;;;14.20;90.30;;;;;;6151847;23;20088;-73
2023/05/25 01:58:27;;;;;;;5.68;3.78;;;14.00;90.50;;;;;;6181891;23;19997;-73
2023/05/25 02:00:55;;;;;;;6.32;3.85;;;14.20;90.50;;;;;;6179443;23;20001;-73
2023/05/25 02:03:21;;;;;;;8.07;4.25;;;14.10;90.50;;;;;;6180906;23;20173;-73
2023/05/25 02:05:46;;;;;;;8.98;4.40;;;14.10;90.60;;;;;;6180615;23;20011;-72
2023/05/25 02:08:12;;;;;;;7.47;3.95;;;14.10;90.70;;;;;;6181546;23;20503;-72
2023/05/25 02:10:38;;;;;;;9.43;3.95;;;14.10;90.70;;;;;;6181056;23;20423;-73
2023/05/25 02:13:03;;;;;;;8.02;3.72;;;14.10;90.70;;;;;;6180830;23;20005;-72
2023/05/25 02:15:32;;;;;;;7.85;3.88;;;14.10;90.70;;;;;;6179497;23;20387;-72
2023/05/25 02:17:59;;;;;;;7.63;4.43;;;14.00;90.80;;;;;;6181120;23;20005;-73
2023/05/25 02:20:26;;;;;;;8.65;4.28;;;14.00;90.80;;;;;;6154190;23;20001;-73
2023/05/25 02:22:52;;;;;;;7.18;4.07;;;14.10;90.90;;;;;;6153405;23;20013;-73
2023/05/25 02:25:18;;;;;;;7.20;4.00;;;14.00;90.90;;;;;;6154370;23;20062;-71
2023/05/25 02:27:44;;;;;;;8.82;4.90;;;14.00;90.90;;;;;;6180427;23;20013;-62
2023/05/25 02:30:10;;;;;;;7.63;4.43;;;14.00;91.00;;;;;;6180824;23;20016;-63
2023/05/25 02:32:36;;;;;;;8.02;4.35;;;14.00;91.00;;;;;;6180188;23;20142;-64
2023/05/25 02:35:02;;;;;;;11.38;4.85;;;14.00;91.00;;;;;;6154608;23;20009;-63
2023/05/25 02:37:28;;;;;;;12.10;4.72;;;14.00;91.10;;;;;;6180417;23;20005;-63
2023/05/25 02:39:53;;;;;;;7.90;4.05;;;14.00;91.20;;;;;;6180767;23;20002;-62
2023/05/25 02:42:19;;;;;;;7.32;4.07;;;13.90;91.20;;;;;;6180891;23;20479;-62
2023/05/25 02:44:47;;;;;;;9.63;4.45;;;13.90;91.30;;;;;;6154066;23;20029;-63
2023/05/25 02:47:17;;;;;;;11.10;5.13;;;13.90;91.30;;;;;;6182147;23;20005;-62
2023/05/25 02:49:43;;;;;;;8.23;5.50;;;13.90;91.30;;;;;;6183377;23;20086;-62
2023/05/25 02:52:09;;;;;;;12.32;5.10;;;13.70;91.70;;;;;;6180984;23;20359;-63
2023/05/25 02:54:35;;;;;;;10.45;5.22;;;13.70;91.60;;;;;;6183612;23;20004;-63
2023/05/25 02:57:02;;;;;;;6.03;4.10;;;13.70;91.70;;;;;;6182764;23;20024;-63
2023/05/25 02:59:28;;;;;;;9.73;4.50;;;13.60;91.80;;;;;;6183444;23;20043;-63
2023/05/25 03:01:53;;;;;;;9.07;4.80;;;13.60;91.90;;;;;;6178089;23;20327;-61
2023/05/25 03:04:19;;;;;;;8.27;4.50;;;13.60;92.00;;;;;;6181986;23;20515;-61
2023/05/25 03:06:44;;;;;;;10.25;5.40;;;13.60;92.00;;;;;;6156174;23;20092;-63
2023/05/25 03:09:10;;;;;;;11.73;6.10;;;13.60;92.10;;;;;;6183264;23;20013;-62
2023/05/25 03:11:36;;;;;;;9.18;5.18;;;13.60;92.10;;;;;;6182430;23;20091;-62
2023/05/25 03:14:01;;;;;;;11.50;5.03;;;13.60;92.20;;;;;;6183325;23;20016;-61
2023/05/25 03:16:27;;;;;;;10.20;4.85;;;13.60;92.30;;;;;;6155832;23;20005;-61
2023/05/25 03:18:53;;;;;;;9.65;5.18;;;13.60;92.40;;;;;;6181654;23;20005;-62
2023/05/25 03:21:18;;;;;;;9.43;5.50;;;13.60;92.40;;;;;;6181990;23;20088;-61
2023/05/25 03:23:44;;;;;;;10.07;5.63;;;13.70;92.50;;;;;;6155668;23;20502;-62
2023/05/25 03:26:10;;;;;;;9.85;5.05;;;13.70;92.60;;;;;;6182317;23;20335;-62
2023/05/25 03:28:35;;;;;;;13.88;5.35;;;13.70;92.60;;;;;;6183138;23;20069;-61
2023/05/25 03:31:01;;;;;;;11.98;6.20;;;13.70;92.70;;;;;;6178947;23;20083;-62
2023/05/25 03:33:27;;;;;;;11.07;5.55;;;13.70;92.70;;;;;;6180230;23;20084;-61
2023/05/25 03:35:52;;;;;;;14.90;5.45;;;13.70;92.80;;;;;;6181849;23;20005;-62
2023/05/25 03:38:18;;;;;;;11.10;5.05;;;13.70;92.90;;;;;;6182892;23;20080;-61
2023/05/25 03:40:44;;;;;;;9.25;4.90;;;13.70;92.90;;;;;;6181863;23;20020;-61
2023/05/25 03:43:09;;;;;;;12.32;5.32;;;13.80;93.00;;;;;;6155673;23;20037;-63
2023/05/25 03:45:35;;;;;;;10.02;5.68;;;13.80;93.00;;;;;;6182929;23;20068;-62
2023/05/25 03:48:01;;;;;;;12.55;5.80;;;13.80;93.10;;;;;;6182389;23;20040;-62
2023/05/25 03:50:26;;;;;;;9.95;5.68;;;13.80;93.10;;;;;;6182655;23;20370;-63
2023/05/25 03:52:52;;;;;;;12.82;5.65;;;13.90;93.20;;;;;;6181613;23;20013;-70
2023/05/25 03:55:18;;;;;;;11.23;5.75;;;13.80;93.20;;;;;;6183008;23;20024;-70
2023/05/25 03:57:44;;;;;;;15.43;6.10;;;13.80;93.30;;;;;;6181393;23;20115;-72
2023/05/25 04:00:11;;;;;;;14.05;6.25;;;13.80;93.30;;;;;;6182150;23;20012;-72
2023/05/25 04:02:36;;;;;;;10.15;5.60;;;13.90;93.40;;;;;;6155528;23;20675;-71
2023/05/25 04:05:02;;;;;;;11.20;5.82;;;13.90;93.40;;;;;;6182231;23;20005;-70
2023/05/25 04:07:29;;;;;;;13.57;7.00;;;13.90;93.40;;;;;;6181693;23;20020;-71
2023/05/25 04:09:58;;;;;;;12.85;5.53;;;14.00;93.50;;;;;;6182245;23;20620;-72
2023/05/25 04:12:24;;;;;;;10.52;5.45;;;14.00;93.50;;;;;;6181397;23;20009;-71
2023/05/25 04:14:49;;;;;;;13.43;5.53;;;14.00;93.50;;;;;;6182490;23;20689;-71
2023/05/25 04:17:17;;;;;;;12.57;6.38;;;14.00;93.60;;;;;;6181989;23;20064;-71
2023/05/25 04:19:43;;;;;;;15.40;6.07;;;14.00;93.60;;;;;;6181355;23;20011;-74
2023/05/25 04:22:09;;;;;;;11.80;5.50;;;14.10;93.70;;;;;;6182064;23;20425;-75
2023/05/25 04:24:34;;;;;;;8.93;5.13;;;14.10;93.80;;;;;;6182419;23;20013;-69
2023/05/25 04:27:01;;;;;;;13.63;5.75;;;14.10;93.80;;;;;;6181817;23;20016;-68
2023/05/25 04:29:27;;;;;;;10.20;5.82;;;14.20;93.80;;;;;;6181341;23;20012;-74
2023/05/25 04:31:53;;;;;;;10.88;6.20;;;14.30;93.90;;;;;;6180054;23;20511;-67
2023/05/25 04:34:20;;;;;;;15.02;5.82;;;14.40;93.90;;;;;;6181102;23;20065;-69
2023/05/25 04:36:46;;;;;;;14.85;7.28;;;14.40;93.90;;;;;;6181846;23;20009;-67
2023/05/25 04:39:12;;;;;;;11.52;6.13;;;14.40;93.80;;;;;;6180544;23;20031;-67
2023/05/25 04:41:38;;;;;;;13.85;6.70;;;14.50;93.80;;;;;;6181744;23;20005;-67
2023/05/25 04:44:04;;;;;;;13.02;6.72;;;14.50;93.80;;;;;;6181121;23;20017;-68
2023/05/25 04:46:30;;;;;;;12.43;6.68;;;14.50;93.70;;;;;;6182121;23;20367;-68
2023/05/25 04:48:56;;;;;;;15.23;5.72;;;14.50;93.70;;;;;;6181516;23;20024;-67
2023/05/25 04:51:22;;;;;;;11.73;6.40;;;14.50;93.80;;;;;;6181984;23;20017;-68
2023/05/25 04:53:48;;;;;;;12.07;7.18;;;14.50;93.90;;;;;;6182260;23;20005;-68
2023/05/25 04:56:13;;;;;;;12.90;6.70;;;14.60;93.90;;;;;;6154746;23;20009;-68
2023/05/25 04:58:41;;;;;;;13.05;6.70;;;14.60;93.90;;;;;;6182044;23;20100;-68
2023/05/25 05:01:06;;;;;;;16.95;7.32;;;14.70;94.00;;;;;;6152561;23;20005;-68
2023/05/25 05:03:32;;;;;;;13.85;6.35;;;14.60;94.00;;;;;;6178650;23;20019;-68
2023/05/25 05:05:58;;;;;;;11.48;6.28;;;14.70;94.00;;;;;;6181216;23;20477;-68
2023/05/25 05:08:23;;;;;;;12.88;6.60;;;14.70;93.90;;;;;;6181897;23;20013;-69
2023/05/25 05:10:49;;;;;;;11.43;6.70;;;14.80;94.00;;;;;;6181733;23;20092;-69
2023/05/25 05:13:14;;;;;;;14.85;6.60;;;14.80;94.00;;;;;;6181534;23;20508;-69
2023/05/25 05:15:40;;;;;;;26.65;9.18;;;14.80;94.00;;;;;;6182193;23;20327;-68
2023/05/25 05:18:07;;;;;;;16.90;10.43;;;14.90;94.10;;;;;;6181319;23;20016;-69
2023/05/25 05:20:33;;;;;;;14.90;7.50;;;14.90;94.00;;;;;;6182187;23;20024;-69
2023/05/25 05:22:58;;;;;;;15.73;6.80;;;15.00;94.00;;;;;;6180073;23;20028;-69
2023/05/25 05:25:24;;;;;;;14.98;6.95;;;15.00;93.90;;;;;;6182296;23;20446;-69
2023/05/25 05:27:49;;;;;;;12.35;6.63;;;15.00;93.90;;;;;;6180136;23;20035;-69
2023/05/25 05:30:15;;;;;;;14.07;6.28;;;15.10;93.90;;;;;;6180591;23;20005;-69
2023/05/25 05:32:41;;;;;;;15.07;7.35;;;15.10;93.90;;;;;;6180866;23;20009;-68
2023/05/25 05:35:07;;;;;;;16.08;7.22;;;15.20;94.00;;;;;;6182279;23;20005;-68
2023/05/25 05:37:32;;;;;;;15.25;7.45;;;15.20;94.00;;;;;;6180483;23;20084;-68
2023/05/25 05:39:58;;;;;;;17.83;8.35;;;15.20;93.90;;;;;;6181232;23;20008;-69
2023/05/25 05:42:24;;;;;;;23.88;8.68;;;15.30;93.90;;;;;;6181526;23;20005;-69
2023/05/25 05:44:49;;;;;;;14.43;7.30;;;15.30;93.80;;;;;;6181314;23;20337;-69
2023/05/25 05:47:15;;;;;;;14.38;7.57;;;15.30;93.80;;;;;;6180690;23;20020;-67
2023/05/25 05:49:40;;;;;;;18.80;8.15;;;15.30;93.80;;;;;;6181354;23;20013;-67
2023/05/25 05:52:08;;;;;;;16.35;7.70;;;15.30;93.80;;;;;;6180427;23;20055;-68
2023/05/25 05:54:33;;;;;;;17.65;7.97;;;15.40;93.80;;;;;;6181123;23;20347;-68
2023/05/25 05:57:00;;;;;;;19.98;8.40;;;15.40;93.80;;;;;;6153546;23;20481;-68
2023/05/25 05:59:25;;;;;;;21.25;9.52;;;15.50;93.80;;;;;;6180902;23;20070;-68
2023/05/25 06:01:51;;;;;;;19.00;6.75;;;15.50;93.80;;;;;;6179920;23;20060;-68
2023/05/25 06:04:18;;;;;;;18.75;8.10;;;15.50;93.80;;;;;;6180272;23;20011;-61
2023/05/25 06:06:44;;;;;;;16.77;8.70;;;15.50;93.80;;;;;;6180973;23;20032;-60
2023/05/25 06:09:10;;;;;;;14.35;7.30;;;15.60;93.80;;;;;;6181853;23;20020;-61
2023/05/25 06:11:38;;;;;;;18.25;8.05;;;15.70;93.80;;;;;;6180715;23;20005;-62
2023/05/25 06:14:04;;;;;;;18.77;7.82;;;15.80;93.80;;;;;;6181538;23;20079;-63
2023/05/25 06:16:29;;;;;;;12.88;6.50;;;15.80;93.70;;;;;;6180135;23;20009;-61
2023/05/25 06:18:55;;;;;;;14.82;6.72;;;15.90;93.70;;;;;;6181533;23;20005;-62
2023/05/25 06:21:21;;;;;;;10.57;6.75;;;16.00;93.50;;;;;;6178530;23;20012;-61
2023/05/25 06:23:47;;;;;;;14.82;7.28;;;16.00;93.50;;;;;;6180168;23;20494;-61
2023/05/25 06:26:12;;;;;;;12.65;6.45;;;16.10;93.50;;;;;;6179345;23;20009;-62
2023/05/25 06:28:38;;;;;;;13.80;6.22;;;16.10;93.40;;;;;;6180798;23;20056;-62
2023/05/25 06:31:04;;;;;;;12.55;7.20;;;16.20;93.40;;;;;;6179296;23;20110;-61
2023/05/25 06:33:30;;;;;;;13.95;6.57;;;16.20;93.30;;;;;;6179978;23;20380;-62
2023/05/25 06:35:59;;;;;;;15.63;6.82;;;16.30;93.30;;;;;;6180553;23;20001;-62
2023/05/25 06:38:25;;;;;;;14.13;6.97;;;16.40;93.20;;;;;;6180429;23;20822;-62
2023/05/25 06:40:51;;;;;;;16.45;6.90;;;16.50;93.10;;;;;;6180287;23;20529;-60
2023/05/25 06:43:17;;;;;;;12.63;5.85;;;16.50;92.90;;;;;;6180755;23;20005;-62
2023/05/25 06:45:42;;;;;;;11.38;5.80;;;16.60;92.90;;;;;;6180816;23;20012;-62
2023/05/25 06:48:08;;;;;;;14.00;6.18;;;16.60;92.80;;;;;;6180730;23;20017;-60
2023/05/25 06:50:33;;;;;;;13.63;6.50;;;16.60;92.70;;;;;;6153627;23;20044;-61
2023/05/25 06:52:59;;;;;;;14.90;6.40;;;16.70;92.50;;;;;;6179999;23;20043;-61
2023/05/25 06:55:25;;;;;;;14.77;6.80;;;16.70;92.40;;;;;;6153701;23;20479;-60
2023/05/25 06:57:51;;;;;;;16.85;6.22;;;16.80;92.20;;;;;;6178669;23;20071;-61
2023/05/25 07:00:17;;;;;;;12.27;4.97;;;16.80;92.00;;;;;;6178381;23;20005;-61
2023/05/25 07:02:43;;;;;;;12.38;5.03;;;16.90;92.00;;;;;;6179319;23;20009;-61
2023/05/25 07:05:08;;;;;;;10.25;4.43;;;16.90;91.70;;;;;;6180548;23;20012;-60
2023/05/25 07:07:34;;;;;;;16.00;5.38;;;16.90;91.40;;;;;;6179004;23;20013;-60
2023/05/25 07:10:02;;;;;;;16.55;5.07;;;17.00;91.30;;;;;;6179863;23;20016;-61
2023/05/25 07:12:27;;;;;;;11.70;5.00;;;17.00;91.20;;;;;;6179552;23;20016;-60
2023/05/25 07:14:53;;;;;;;12.55;4.97;;;17.10;91.20;;;;;;6180980;23;20005;-61
2023/05/25 07:17:19;;;;;;;12.45;5.43;;;17.10;91.10;;;;;;6180394;23;20005;-61
2023/05/25 07:19:48;;;;;;;11.07;5.00;;;17.20;91.00;;;;;;6180361;23;20001;-69
2023/05/25 07:22:17;;;;;;;10.80;4.18;;;17.20;90.70;;;;;;6179447;23;20014;-69
2023/05/25 07:24:46;;;;;;;8.18;3.85;;;17.40;90.40;;;;;;6180726;23;20005;-68
2023/05/25 07:27:12;;;;;;;11.18;3.85;;;17.40;90.20;;;;;;6181114;23;20036;-68
2023/05/25 07:29:39;;;;;;;14.90;4.15;;;17.50;90.10;;;;;;6180390;23;20013;-67
2023/05/25 07:32:05;;;;;;;10.23;4.72;;;17.50;90.00;;;;;;6179629;23;20029;-68
2023/05/25 07:34:32;;;;;;;12.32;4.28;;;17.60;89.30;;;;;;6181379;23;20012;-68
2023/05/25 07:36:57;;;;;;;8.27;4.10;;;17.70;89.40;;;;;;6181173;23;20076;-67
2023/05/25 07:39:23;;;;;;;9.98;4.00;;;17.70;88.40;;;;;;6181837;23;20005;-67
2023/05/25 07:41:49;;;;;;;11.90;4.57;;;17.80;88.70;;;;;;6181551;23;20079;-68
2023/05/25 07:44:14;;;;;;;7.55;3.38;;;17.90;87.90;;;;;;6181570;23;20031;-69
2023/05/25 07:46:41;;;;;;;7.03;3.83;;;17.90;86.50;;;;;;6180864;23;20493;-68
2023/05/25 07:49:10;;;;;;;7.55;3.10;;;18.00;86.00;;;;;;6181615;23;20051;-66
2023/05/25 07:51:36;;;;;;;7.53;3.10;;;18.00;84.20;;;;;;6181846;23;20008;-68
2023/05/25 07:54:02;;;;;;;9.10;3.67;;;18.00;84.40;;;;;;6181439;23;20012;-67
2023/05/25 07:56:27;;;;;;;10.77;4.05;;;18.10;84.50;;;;;;6181121;23;20133;-67
2023/05/25 07:58:53;;;;;;;8.55;4.05;;;18.10;84.60;;;;;;6182617;23;20072;-67
2023/05/25 08:01:19;;;;;;;10.38;5.15;;;18.20;83.70;;;;;;6179937;23;20005;-67
2023/05/25 08:03:44;;;;;;;13.95;4.50;;;18.30;84.20;;;;;;6182013;23;20022;-67
2023/05/25 08:06:10;;;;;;;8.23;4.07;;;18.30;83.80;;;;;;6182169;23;20001;-67
2023/05/25 08:08:36;;;;;;;14.88;4.65;;;18.50;83.90;;;;;;6180247;23;20565;-67
2023/05/25 08:11:01;;;;;;;6.60;3.13;;;18.50;83.30;;;;;;6181754;23;20009;-67
2023/05/25 08:13:27;;;;;;;7.30;3.25;;;18.60;82.80;;;;;;6182132;23;20124;-68
2023/05/25 08:15:53;;;;;;;10.63;3.15;;;18.60;82.60;;;;;;6181451;23;20066;-68
2023/05/25 08:18:21;;;;;;;6.50;2.80;;;18.70;82.80;;;;;;6182174;23;20009;-68
2023/05/25 08:20:47;;;;;;;8.90;3.67;;;18.80;82.30;;;;;;6179942;23;20009;-68
2023/05/25 08:23:12;;;;;;;10.75;3.47;;;18.90;81.90;;;;;;6180898;23;20335;-69
2023/05/25 08:25:38;;;;;;;11.98;3.63;;;18.90;81.00;;;;;;6155813;23;20005;-61
2023/05/25 08:28:04;;;;;;;8.13;3.78;;;19.00;81.00;;;;;;6181282;23;20024;-62
2023/05/25 08:30:29;;;;;;;7.07;3.50;;;19.00;81.00;;;;;;6182027;23;20324;-62
2023/05/25 08:32:55;;;;;;;8.60;3.65;;;19.00;80.80;;;;;;6181840;23;20009;-62
2023/05/25 08:35:21;;;;;;;11.32;3.53;;;19.10;81.10;;;;;;6182963;23;20433;-62
2023/05/25 08:37:46;;;;;;;12.70;4.13;;;19.20;80.50;;;;;;6181849;23;20009;-63
2023/05/25 08:40:15;;;;;;;8.90;3.47;;;19.30;80.10;;;;;;6181160;23;20068;-63
2023/05/25 08:42:44;;;;;;;11.50;3.85;;;19.40;79.40;;;;;;6180602;23;20013;-62
2023/05/25 08:45:11;;;;;;;12.63;3.53;;;19.60;79.50;;;;;;6153400;23;20040;-62
2023/05/25 08:47:47;;;;;;;11.02;3.58;;;19.80;78.80;;;;;;6181282;23;20024;-62
2023/05/25 08:50:15;;;;;;;9.38;3.45;;;20.00;79.10;;;;;;6181655;23;20339;-61
2023/05/25 08:52:45;;;;;;;9.65;3.47;;;20.10;78.20;;;;;;6153716;23;20335;-62
2023/05/25 08:55:11;;;;;;;6.32;3.17;;;20.20;77.70;;;;;;6178689;23;20423;-62
2023/05/25 08:57:46;;;;;;;8.70;3.88;;;20.20;76.80;;;;;;6180439;23;20009;-59
2023/05/25 09:00:14;;;;;;;8.48;3.35;;;20.10;76.20;;;;;;6179795;23;20075;-60
2023/05/25 09:03:00;;;;;;;11.55;3.90;;;20.00;76.20;;;;;;6177094;23;20024;-59
2023/05/25 09:05:26;;;;;;;9.93;3.47;;;20.10;77.10;;;;;;6180604;23;20002;-58
2023/05/25 09:07:55;;;;;;;11.55;3.65;;;20.20;77.20;;;;;;6179816;23;20410;-59
2023/05/25 09:10:23;;;;;;;7.25;3.08;;;20.30;76.80;;;;;;6176930;23;20012;-59
2023/05/25 09:12:50;;;;;;;9.30;4.05;;;20.40;75.90;;;;;;6177583;23;20012;-56
2023/05/25 09:15:16;;;;;;;10.20;4.28;;;20.30;75.50;;;;;;6181402;23;20001;-59
2023/05/25 09:17:41;;;;;;;12.07;3.67;;;20.30;75.40;;;;;;6181176;23;20020;-58
2023/05/25 09:20:12;;;;;;;8.93;3.90;;;20.30;75.10;;;;;;6180727;23;20428;-59
2023/05/25 09:22:39;;;;;;;5.60;3.10;;;20.30;75.20;;;;;;6181038;23;20009;-56
2023/05/25 09:25:07;;;;;;;8.35;3.63;;;20.30;74.80;;;;;;6181497;23;20005;-58
2023/05/25 09:27:36;;;;;;;5.72;2.78;;;20.30;75.30;;;;;;6181456;23;20025;-60
2023/05/25 09:30:03;;;;;;;12.68;3.67;;;20.50;74.90;;;;;;6180949;23;20005;-58
2023/05/25 09:32:29;;;;;;;5.78;3.25;;;20.50;73.90;;;;;;6179967;23;20407;-59
2023/05/25 09:35:05;;;;;;;10.90;3.65;;;20.40;73.10;;;;;;6180988;23;20008;-60
2023/05/25 09:37:31;;;;;;;6.05;3.03;;;20.50;72.40;;;;;;6179305;23;20001;-59
2023/05/25 09:39:56;;;;;;;7.30;2.72;;;20.40;72.30;;;;;;6181861;23;20013;-60
2023/05/25 09:42:22;;;;;;;11.05;3.63;;;20.40;72.00;;;;;;6179894;23;20084;-58
2023/05/25 09:44:48;;;;;;;7.47;3.40;;;20.40;72.10;;;;;;6180150;23;20514;-58
2023/05/25 09:47:16;;;;;;;8.98;3.80;;;20.40;71.90;;;;;;6154426;23;20009;-59
2023/05/25 09:49:43;;;;;;;9.55;3.63;;;20.50;72.10;;;;;;6154432;23;20071;-60
2023/05/25 09:52:11;;;;;;;7.82;3.33;;;20.60;72.50;;;;;;6181546;23;20005;-60
2023/05/25 09:54:37;;;;;;;5.75;3.22;;;20.70;72.60;;;;;;6181869;23;20070;-60
2023/05/25 09:57:04;;;;;;;8.20;2.88;;;20.70;71.30;;;;;;6180393;23;20300;-59
2023/05/25 09:59:30;;;;;;;12.13;3.75;;;20.70;71.30;;;;;;6179273;23;20009;-60
2023/05/25 10:01:56;;;;;;;7.53;3.05;;;20.70;71.60;;;;;;6180043;23;20057;-60
2023/05/25 10:04:22;;;;;;;6.45;3.13;;;20.70;71.90;;;;;;6180671;23;20024;-58
2023/05/25 10:06:50;;;;;;;7.30;4.03;;;20.80;72.30;;;;;;6181240;23;20009;-58
2023/05/25 10:09:19;;;;;;;6.18;3.42;;;20.80;72.50;;;;;;6180878;23;20390;-58
2023/05/25 10:11:46;;;;;;;5.95;3.70;;;21.00;72.50;;;;;;6179830;23;20021;-59
2023/05/25 10:14:18;;;;;;;8.57;4.05;;;21.00;71.80;;;;;;6180610;23;20347;-59
2023/05/25 10:16:48;;;;;;;7.10;3.70;;;21.10;71.80;;;;;;6180194;23;20008;-60
2023/05/25 10:19:44;;;;;;;12.52;4.97;;;21.00;71.10;;;;;;6180445;23;20032;-71
2023/05/25 10:22:23;;;;;;;7.70;3.35;;;20.90;71.20;;;;;;6126466;23;20020;-70
2023/05/25 10:24:57;;;;;;;8.73;3.90;;;20.90;71.30;;;;;;6181361;23;20005;-71
2023/05/25 10:27:27;;;;;;;8.20;3.55;;;20.90;71.00;;;;;;6180393;23;20013;-70
2023/05/25 10:29:55;;;;;;;4.97;2.90;;;20.90;71.00;;;;;;6181269;23;20420;-71
2023/05/25 10:32:21;;;;;;;5.45;3.35;;;20.90;70.50;;;;;;6179393;23;20014;-70
2023/05/25 10:34:49;;;;;;;7.63;3.80;;;21.00;70.30;;;;;;6180432;23;20087;-71
2023/05/25 10:37:15;;;;;;;6.72;3.15;;;21.00;69.60;;;;;;6180278;23;20008;-71
2023/05/25 10:39:42;;;;;;;5.10;3.42;;;21.00;70.10;;;;;;6180450;23;20028;-71
2023/05/25 10:42:08;;;;;;;5.95;3.55;;;21.10;70.70;;;;;;6180528;23;20005;-71
2023/05/25 10:44:34;;;;;;;5.05;3.10;;;21.20;70.60;;;;;;6148598;23;20021;-71
2023/05/25 10:47:00;;;;;;;6.00;3.17;;;21.30;70.60;;;;;;6150070;23;20092;-70
2023/05/25 10:49:50;;;;;;;5.25;2.65;;;21.40;70.50;;;;;;6151373;23;20034;-71
2023/05/25 10:52:20;;;;;;;5.57;2.97;;;21.50;69.60;;;;;;6150559;23;20430;-71
2023/05/25 10:54:54;;;;;;;14.38;3.80;;;21.40;68.60;;;;;;6150512;23;20262;-71
2023/05/25 10:57:24;;;;;;;14.37;3.97;;;21.40;69.80;;;;;;6150814;23;20010;-70
2023/05/25 10:59:59;;;;;;;14.38;3.45;;;21.40;69.30;;;;;;6150301;23;20006;-71
2023/05/25 11:02:28;;;;;;;7.55;3.25;;;21.40;69.50;;;;;;6150166;23;20006;-71
2023/05/25 11:05:25;;;;;;;6.45;3.20;;;21.20;69.80;;;;;;6151729;23;20013;-70
2023/05/25 11:07:58;;;;;;;4.78;3.15;;;21.30;69.40;;;;;;6151126;23;20052;-72
2023/05/25 11:10:43;;;;;;;6.63;3.50;;;21.30;70.10;;;;;;6152794;23;20006;-71
2023/05/25 11:13:32;;;;;;;6.60;3.33;;;21.40;69.40;;;;;;6152913;23;20017;-69
2023/05/25 11:16:20;;;;;;;9.10;3.75;;;21.40;69.50;;;;;;6150858;23;20336;-70
2023/05/25 11:18:53;;;;;;;7.95;3.08;;;21.50;69.50;;;;;;6152916;23;20478;-70
2023/05/25 11:21:41;;;;;;;7.57;3.58;;;21.40;69.30;;;;;;6150229;23;20089;-71
2023/05/25 11:24:15;;;;;;;8.02;3.85;;;21.40;69.20;;;;;;6152826;23;20436;-71
2023/05/25 11:27:00;;;;;;;7.90;3.03;;;21.40;68.90;;;;;;6151331;23;20471;-70
2023/05/25 11:29:30;;;;;;;11.40;4.20;;;21.30;69.10;;;;;;6152835;23;20090;-71
2023/05/25 11:31:59;;;;;;;8.20;3.60;;;21.30;69.70;;;;;;6152690;23;20013;-71
2023/05/25 11:34:25;;;;;;;5.18;3.13;;;21.30;69.10;;;;;;6152515;23;20068;-70
2023/05/25 11:36:56;;;;;;;10.07;3.60;;;21.20;69.20;;;;;;6152485;23;20006;-72
2023/05/25 11:39:22;;;;;;;10.55;4.43;;;21.30;69.40;;;;;;6152859;23;20013;-71
2023/05/25 11:41:55;;;;;;;8.57;3.28;;;21.30;68.80;;;;;;6152188;23;20424;-71
2023/05/25 11:44:32;;;;;;;6.80;3.13;;;21.40;69.00;;;;;;6166877;23;20136;-71
2023/05/25 11:47:07;;;;;;;7.18;3.65;;;21.40;69.10;;;;;;6182177;23;20362;-71
2023/05/25 11:49:32;;;;;;;7.07;3.40;;;21.50;69.00;;;;;;6181929;23;20021;-70
2023/05/25 11:51:58;;;;;;;9.82;4.35;;;21.50;68.80;;;;;;6182061;23;20088;-71
2023/05/25 11:54:26;;;;;;;8.60;4.15;;;21.50;68.40;;;;;;6181349;23;20005;-71
2023/05/25 11:56:57;;;;;;;8.88;3.38;;;21.60;68.30;;;;;;6182358;23;20029;-70
2023/05/25 11:59:27;;;;;;;6.43;3.30;;;21.60;67.90;;;;;;6182165;23;20012;-71
2023/05/25 12:01:59;;;;;;;10.43;3.65;;;21.60;67.90;;;;;;6182681;23;20386;-72
2023/05/25 12:04:25;;;;;;;7.57;3.65;;;21.50;67.50;;;;;;6155035;23;20035;-71
2023/05/25 12:06:51;;;;;;;10.13;3.92;;;21.50;67.40;;;;;;6181358;23;20025;-69
2023/05/25 12:09:21;;;;;;;6.72;2.90;;;21.40;67.50;;;;;;6181919;23;20040;-69
2023/05/25 12:11:47;;;;;;;7.35;3.08;;;21.50;68.20;;;;;;6182160;23;20004;-71
2023/05/25 12:14:13;;;;;;;6.70;3.35;;;21.60;68.20;;;;;;6182289;23;20136;-71
2023/05/25 12:16:39;;;;;;;5.40;3.08;;;21.70;67.80;;;;;;6181770;23;20040;-69
2023/05/25 12:19:06;;;;;;;10.02;3.83;;;21.70;67.70;;;;;;6181044;23;20005;-71
2023/05/25 12:21:32;;;;;;;7.60;3.92;;;21.90;68.10;;;;;;6181964;23;20443;-70
2023/05/25 12:24:00;;;;;;;12.25;4.68;;;22.00;68.40;;;;;;6182186;23;20009;-70
2023/05/25 12:26:28;;;;;;;13.23;4.10;;;22.20;68.10;;;;;;6180623;23;20024;-71
2023/05/25 12:29:11;;;;;;;8.40;3.55;;;22.30;68.10;;;;;;6181221;23;20027;-71
2023/05/25 12:31:38;;;;;;;8.38;3.78;;;22.30;68.50;;;;;;6182150;23;20016;-70
2023/05/25 12:34:10;;;;;;;7.13;3.55;;;22.40;68.60;;;;;;6181133;23;20016;-72
2023/05/25 12:36:52;;;;;;;9.98;3.55;;;22.40;68.80;;;;;;6181742;23;20013;-70
2023/05/25 12:39:30;;;;;;;12.90;3.95;;;22.50;68.70;;;;;;6180803;23;20423;-70
2023/05/25 12:42:13;;;;;;;8.40;4.32;;;22.60;68.80;;;;;;6181216;23;20013;-69
2023/05/25 12:44:38;;;;;;;7.65;3.80;;;22.70;68.50;;;;;;6181052;23;20013;-71
2023/05/25 12:47:15;;;;;;;11.50;4.93;;;22.90;68.50;;;;;;6154861;23;20016;-71